Bartlesville Muni Information

FAA: BVO - ICAO: KBVO

Bartlesville Muni (Airport) Location

State Oklahoma
County Osage
City Bartlesville
Bartlesville Muni (Airport) is 2 miles northwest of Bartlesville, OK.
Latitude 36-45-48.1000N
Longitude 096-00-40.3000W
Elevation 716ft

Bartlesville Muni METARs

METAR KBVO 190153Z AUTO 00000KT 10SM CLR 03/M01 A2981 RMK AO2 SLP096 T00331006
Altimeter 29.81"
Temperature 3.3°C (37.9°F)
Wind 0° at 0KT
Clouds Skies are clear.
Visibility 10.0mi
Time observed: 2022-01-19T01:53:00Z

Bartlesville Muni (Airport) Details

Status Operational
Activation November 1938
Ownership Public
Usage Public
Chart KANSAS CITY
ATC on-site No
Beacon schedule sunset-sunrise
Beacon color clear green

Bartlesville Muni (Airport) Contacts

Owner CITY OF BARTLESVILLE
Owner address CITY HALL, 401 S. JOHNSTONE, BARTLESVILLE, OK 74003
Owner phone 918-338-4282
Manager DALE LOGSDON
Manager address 710 N. SUNSET, ALVA, OK 73717
Manager phone 405-327-0906

Bartlesville Muni Radio Frequencies

Bartlesville Muni (Airport) Radio Frequencies

UNICOM N/A
Common traffic advisory frequency (CTAF) 122.825